MET'MAP v2.0
soon released !

Expected late october,
this new version will be
more efficient, smarter,
and hosted on a brand new
server x3 powerfull...
...and still free !


Not compatible ?
Try the mobile version !

LOG IN : | Subscribe | Disclaimer | Who is Orbifly ? |
ICAO code :

TAF - EGUO Colerne Airport - 11 Nov 2019 20:51 UTC
Data Sources :     NOAA   


- Airport Elevation : 593 ft
- No reported NOTAMs.


EGUO - Colerne Airport

Latest METAR recorded : 2015/08/11 07:50 EGUO 110750Z 04005KT CAVOK 13/10 Q1021 BLU
Expired Forecast.

Source NOAA


MET'MAP, your aeronautical weather chart ! - Copyright ORBIFLY December 2007

Programming & Development : Alexandra Zaïnal
Co-Developer : Marc-Olivier Méhu
Technical & hardware support : Manuel Goepfert
Concept & Financing : Baudouin d'Aumeries